Logo AVAMET
Benvolgut visitant, si us plau, ingressa Recuperar contrasenya

Inforatge Dénia Madrigueres

Dades diàries. Acumulats / Últims 30 dies disponibles

Data Temperatura (°C) Humitat rel. (%) Pressió rel. (hPa) Vent (km/h) Precipitació
Mínima Mitjana Màxima Amplitud
tèrmica
Mínima Mitjana Màxima Mínima Mitjana Màxima Predom. Mitjana Ràfega
màxima
Total
(mm)
Índex-n
Mínima Mitjana Màxima Mínima Mitjana Màxima n
0 a 1
P0 max
mm 5'
Dades mensuals acumulades fins l'últim dia disponible
09/2019 14,5 20,6 24,6 24,2 24,0 27,7 35,2 20,7 29 77 98 1.008 1.018 1.026   6,6 70,9 181,4
Dades anuals acumulades fins l'últim dia disponible
2019 1,9 15,2 27,1 19,6 12,1 24,1 39,8 37,9 16 67 98 994 1.017 1.035   5,8 70,9 563,8
Últims 30 dies disponibles
20-09-2019 21,1     23,5     26,8 5,7 76 86 92 1.015 1.017 1.018 SSE 4,3 24,1 0,0
19-09-2019 19,4     23,4     26,5 7,1 70 81 92 1.016 1.017 1.018 S 3,2 18,5 0,0
18-09-2019 21,4     25,0     30,2 8,8 34 70 94 1.014 1.015 1.016 S 3,6 27,8 0,0
17-09-2019 19,5     24,1     28,3 8,8 68 82 94 1.014 1.016 1.018 SSE 2,4 24,1 0,0
16-09-2019 22,1     24,2     26,1 4,0 78 89 97 1.017 1.018 1.020 SSE 5,2 25,9 0,0
15-09-2019 23,1     24,0     25,9 2,8 87 92 96 1.018 1.019 1.022 ESE 9,6 33,3 0,0
14-09-2019 19,5     22,8     24,0 4,5 79 86 93 1.020 1.023 1.025 S 9,3 31,5 8,8 0,27 4,00
13-09-2019 19,9     22,8     25,1 5,2 70 85 95 1.021 1.023 1.025 E 11,1 45,0 17,6 0,61 5,00
12-09-2019 17,9     22,6     25,6 7,7 70 86 98 1.019 1.023 1.026 E 16,5 70,9 107,2 0,74 12,20
11-09-2019 14,5     20,3     24,2 9,7 57 72 96 1.012 1.016 1.021 S 12,0 55,6 24,0 0,51 2,80
10-09-2019 16,9     24,1     29,2 12,3 29 50 82 1.008 1.010 1.014 SSO 8,0 37,0 10,8 0,36 1,80
09-09-2019 19,3     25,7     29,9 10,6 44 63 86 1.011 1.015 1.017 SSO 7,9 37,0 0,0
08-09-2019 18,6     23,5     27,7 9,1 53 72 91 1.015 1.017 1.019 S 4,9 33,3 0,0
07-09-2019 20,7     23,0     26,1 5,4 66 79 92 1.018 1.019 1.020 SSO 2,3 22,6 9,8 0,38 1,30
06-09-2019 21,8     23,9     26,8 5,0 64 76 87 1.018 1.019 1.020 SE 5,9 32,2 0,0
05-09-2019 23,3     25,2     27,6 4,3 58 74 87 1.016 1.017 1.019 SSE 6,0 32,2 0,0
04-09-2019 24,6     27,2     31,4 6,8 52 72 85 1.015 1.018 1.020 S 4,6 24,1 0,0
03-09-2019 21,4     25,5     30,3 8,9 59 77 90 1.019 1.020 1.022 S 5,4 32,2 0,0
02-09-2019 23,0     24,9     27,4 4,4 71 82 92 1.014 1.018 1.020 SSO 4,9 43,5 3,2 0,32 0,50
01-09-2019 23,3     28,5     35,2 11,9 34 61 84 1.011 1.013 1.015 SSO 4,9 31,5 0,0
31-08-2019 21,4     28,2     34,3 12,9 36 58 82 1.013 1.015 1.018 S 2,9 25,9 0,0
30-08-2019 21,2     27,6     33,1 11,9 42 58 79 1.017 1.019 1.021 S 3,7 25,9 0,0
29-08-2019 21,2     26,7     32,9 11,7 42 68 88 1.018 1.019 1.020 S 5,2 32,2 0,0
28-08-2019 19,6     24,8     29,7 10,1 58 74 90 1.016 1.017 1.018 S 3,5 27,8 0,0
27-08-2019 20,2     23,9     27,1 6,9 67 77 89 1.013 1.015 1.017 SO 6,4 48,3 0,2
26-08-2019 22,1     25,3     28,3 6,2 69 81 92 1.014 1.016 1.018 SSE 4,8 29,6 0,0
25-08-2019 21,6     25,1     28,6 7,0 65 79 91 1.016 1.018 1.019 SSE 5,2 29,6 0,0
24-08-2019 21,2     24,9     28,4 7,2 69 76 86 1.017 1.019 1.020 S 4,5 24,1 0,0
23-08-2019 20,5     24,7     28,4 7,9 56 75 89 1.018 1.020 1.021 SSE 3,9 24,1 0,0
22-08-2019 20,8     24,7     28,2 7,4 62 76 86 1.019 1.020 1.021 S 4,6 24,1 0,0
Últims 13 mesos disponibles
08/2019 19,6 23,0 27,1 27,3 27,1 32,0 39,8 20,2 50 69 83 1.010 1.015 1.020 S 5,8 48,3 39,0
07/2019 21,5 23,2 26,9 27,4 27,7 31,7 38,2 16,7 44 67 84 1.006 1.014 1.021 S 6,2 53,7 1,6
06/2019 13,9 18,5 22,9 23,2 20,9 27,8 37,7 23,8 36 65 86 1.009 1.015 1.022 SSE 6,6 55,6 0,0
05/2019 10,6 15,0 20,6 19,4 18,9 24,1 31,5 20,9 49 67 85 1.005 1.015 1.024 S 5,8 55,6 10,0
04/2019 10,1 12,3 16,7 16,0 14,9 20,2 28,8 18,7 41 68 96 1.000 1.013 1.025 SSO 7,1 56,3 282,0
03/2019 6,9 10,1 16,1 15,1 14,3 19,7 28,0 21,1 28 63 90 1.011 1.023 1.030 S 4,9 53,7 46,0
02/2019 4,9 8,0 12,1 12,8 12,8 17,5 23,7 18,8 38 65 85 996 1.025 1.033 S 4,5 64,8 0,2
01/2019 1,9 7,5 14,1 12,0 12,1 16,5 21,8 19,9 41 61 85 1.003 1.019 1.030 SSO 4,8 63,0 3,6
12/2018 5,8 9,1 12,4 13,7 13,4 18,6 22,8 17,0 53 72 89 1.009 1.025 1.031 SSO 2,5 51,9 31,6
11/2018 7,0 12,2 16,2 15,7 15,9 19,2 24,1 17,1 47 70 94 1.000 1.015 1.023 OSO 4,5 63,0 124,6
10/2018 9,4 15,7 20,7 19,6 15,0 23,7 28,8 19,4 41 71 89 1.000 1.014 1.025 S 4,6 55,6 109,4
09/2018 16,1 21,3 23,7 24,8 24,2 28,6 34,2 18,1 62 77 88 1.012 1.019 1.027 4,6 42,6 78,0
08/2018 19,7 23,7 27,2 27,7 25,8 31,8 37,9 18,2 48 69 83 1.012 1.016 1.021 6,3 48,3 55,0
Tots els anys disponibles
2018 2,9 15,2 27,2 19,1 8,3 23,2 37,9 35,0 34 67 94 993 1.016 1.034 S 5,5 66,7 612,4
2017 3,3 15,8 27,2 20,0 12,4 24,3 37,1 33,8 30 69 94 998 1.018 1.035 S 3,2 61,1 453,0
Temperatura (°C)
Humitat relativa (%)
Velocitat del vent i ràfega màxima (km/h)
Direcció del vent (°)
Pressió (hPa)
Precipitació (mm)
Nota sobre les dades: s'avisa a l'usuari de la provisionalitat i no oficialitat d'aquestes dades
Logo AVAMET blanc
Web allotjada a Sollutia
Llicència de Creative CommonsLa web d'AVAMET i els seus continguts estan subjectes a una llicència de
Reconeixement - No Comercial - Compartir igual
Properes estacions: Altea - Club Nàutic d'Altea (Soci),    - - - - -      Últimes estacions: Llíria - Bodegas del Campo (Soci), La Pobla Tornesa (Soci), Quartell (Soci), Alzira - Est (Soci/Inforatge), San Miguel de las Salinas (MeteOrihuela), Segorbe (Inforatge), Alcalà de Xivert - Alcossebre (Inforatge), Moixent - la Foia (Soci), Callosa d'en Sarrià - Centre (Soci) - - -